| time (UTC) | temp F | wind direction | speed knots | gust knots | rain 1hr in | rain 24hr in | rain mn in | humidity % | barometer mb |
| 20260510011520 | 57 | 175 | 0.0 | 1.7 | 0.00 | 0.14 | 0.14 | 85 | 1009.9 |
| 20260510010028 | 58 | 193 | 0.0 | 1.7 | 0.00 | 0.14 | 0.14 | 84 | 1009.8 |
| 20260510004537 | 59 | 148 | 0.0 | 1.7 | 0.00 | 0.14 | 0.14 | 82 | 1009.7 |
| 20260510003054 | 60 | 111 | 0.0 | 0.9 | 0.00 | 0.14 | 0.14 | 79 | 1009.3 |
| 20260510001557 | 62 | 186 | 0.0 | 1.7 | 0.00 | 0.14 | 0.14 | 76 | 1009.0 |
| 20260510000103 | 64 | 202 | 0.0 | 2.6 | 0.00 | 0.14 | 0.14 | 73 | 1008.8 |
| 20260509234512 | 65 | 202 | 0.0 | 2.6 | 0.00 | 0.14 | 0.14 | 68 | 1008.6 |
| 20260509233020 | 65 | 173 | 0.0 | 1.7 | 0.00 | 0.14 | 0.14 | 66 | 1008.6 |
| 20260509231533 | 66 | 198 | 0.0 | 2.6 | 0.00 | 0.14 | 0.14 | 66 | 1008.6 |
| 20260509230042 | 66 | 166 | 0.9 | 4.3 | 0.00 | 0.14 | 0.14 | 65 | 1008.6 |
| 20260509224551 | 66 | 161 | 0.9 | 4.3 | 0.00 | 0.14 | 0.14 | 64 | 1008.8 |
| 20260509223102 | 66 | 191 | 0.9 | 7.8 | 0.00 | 0.14 | 0.14 | 64 | 1009.1 |
| 20260509221505 | 66 | 281 | 0.0 | 5.2 | 0.00 | 0.14 | 0.14 | 64 | 1009.1 |
| 20260509220014 | 66 | 175 | 1.7 | 6.1 | 0.00 | 0.14 | 0.14 | 63 | 1009.0 |
| 20260509214520 | 66 | 185 | 0.0 | 3.5 | 0.00 | 0.14 | 0.14 | 65 | 1009.1 |
| 20260509213031 | 67 | 195 | 1.7 | 7.0 | 0.00 | 0.14 | 0.14 | 65 | 1009.2 |
| 20260509211536 | 66 | 336 | 0.0 | 4.3 | 0.00 | 0.14 | 0.14 | 67 | 1009.2 |
| 20260509210042 | 66 | 242 | 0.9 | 3.5 | 0.00 | 0.14 | 0.14 | 68 | 1009.2 |
| 20260509204552 | 66 | 197 | 0.9 | 4.3 | 0.00 | 0.14 | 0.14 | 69 | 1009.2 |
| 20260509203106 | 66 | 126 | 0.9 | 4.3 | 0.00 | 0.14 | 0.14 | 67 | 1009.5 |
| 20260509201512 | 67 | 27 | 1.7 | 3.5 | 0.00 | 0.14 | 0.14 | 70 | 1009.5 |
| 20260509200028 | 66 | 20 | 0.0 | 4.3 | 0.00 | 0.14 | 0.14 | 70 | 1009.8 |
| 20260509194535 | 65 | 310 | 0.9 | 2.6 | 0.00 | 0.14 | 0.14 | 70 | 1010.1 |
| 20260509193102 | 65 | 173 | 0.0 | 3.5 | 0.00 | 0.14 | 0.14 | 70 | 1010.0 |
| 20260509191556 | 65 | 112 | 0.9 | 2.6 | 0.00 | 0.14 | 0.14 | 71 | 1010.1 |
| 20260509190059 | 65 | 162 | 0.9 | 2.6 | 0.00 | 0.14 | 0.14 | 71 | 1010.0 |
| 20260509184608 | 63 | 182 | 0.0 | 4.3 | 0.00 | 0.14 | 0.14 | 78 | 1010.0 |
| 20260509183008 | 61 | 128 | 0.0 | 1.7 | 0.00 | 0.14 | 0.14 | 81 | 1010.2 |
| 20260509181515 | 60 | 248 | 0.0 | 0.9 | 0.00 | 0.14 | 0.14 | 80 | 1010.1 |
| 20260509180017 | 60 | 186 | 0.0 | 1.7 | 0.00 | 0.14 | 0.14 | 80 | 1009.9 |
| 20260509174520 | 59 | 209 | 0.9 | 3.5 | 0.00 | 0.14 | 0.14 | 82 | 1010.0 |
| 20260509173027 | 58 | 57 | 0.9 | 2.6 | 0.00 | 0.14 | 0.14 | 88 | 1010.2 |
| 20260509171542 | 57 | 186 | 0.9 | 3.5 | 0.00 | 0.14 | 0.14 | 90 | 1010.2 |
| 20260509170044 | 57 | 225 | 0.0 | 1.7 | 0.00 | 0.14 | 0.14 | 90 | 1010.3 |
| 20260509164555 | 57 | 236 | 0.0 | 3.5 | 0.00 | 0.14 | 0.14 | 91 | 1010.2 |
| 20260509163008 | 56 | 163 | 0.9 | 3.5 | 0.00 | 0.14 | 0.14 | 91 | 1010.2 |
| 20260509161511 | 56 | 11 | 1.7 | 3.5 | 0.00 | 0.14 | 0.14 | 91 | 1010.2 |
| 20260509160019 | 55 | 155 | 0.0 | 2.6 | 0.01 | 0.14 | 0.14 | 89 | 1010.4 |
| 20260509154521 | 56 | 198 | 0.9 | 4.3 | 0.01 | 0.14 | 0.14 | 90 | 1010.8 |
| 20260509153034 | 55 | 101 | 0.0 | 2.6 | 0.01 | 0.14 | 0.14 | 93 | 1010.7 |
| 20260509151539 | 55 | 126 | 0.0 | 1.7 | 0.01 | 0.14 | 0.14 | 91 | 1011.0 |
| 20260509150104 | 55 | 161 | 0.0 | 0.9 | 0.00 | 0.13 | 0.13 | 93 | 1011.0 |
| 20260509144510 | 54 | 76 | 0.0 | 0.9 | 0.01 | 0.13 | 0.13 | 92 | 1011.1 |
| 20260509143017 | 54 | 168 | 0.0 | 1.7 | 0.01 | 0.13 | 0.13 | 92 | 1011.1 |
| 20260509141527 | 54 | 185 | 0.0 | 1.7 | 0.01 | 0.13 | 0.13 | 93 | 1011.0 |
| 20260509140029 | 53 | 207 | 0.0 | 0.9 | 0.01 | 0.13 | 0.13 | 92 | 1011.2 |
| 20260509134543 | 53 | 227 | 0.0 | 1.7 | 0.01 | 0.12 | 0.12 | 92 | 1011.2 |
| 20260509133051 | 53 | 201 | 0.0 | 1.7 | 0.02 | 0.12 | 0.12 | 93 | 1011.2 |
| 20260509131558 | 53 | 5 | 0.0 | 0.9 | 0.03 | 0.12 | 0.12 | 95 | 1011.1 |
| 20260509130004 | 52 | 341 | 0.0 | 1.7 | 0.03 | 0.12 | 0.12 | 94 | 1011.3 |
| 20260509124514 | 52 | 213 | 0.0 | 0.9 | 0.03 | 0.11 | 0.11 | 94 | 1011.4 |
| 20260509123021 | 52 | 128 | 0.0 | 1.7 | 0.02 | 0.10 | 0.10 | 93 | 1011.5 |
| 20260509121535 | 52 | 187 | 0.0 | 1.7 | 0.02 | 0.09 | 0.09 | 93 | 1011.7 |
| 20260509120047 | 52 | 270 | 0.0 | 5.2 | 0.02 | 0.09 | 0.09 | 93 | 1011.6 |
| 20260509114603 | 51 | 173 | 0.9 | 2.6 | 0.02 | 0.08 | 0.08 | 95 | 1011.7 |
| 20260509113003 | 51 | 157 | 0.0 | 1.7 | 0.03 | 0.08 | 0.08 | 95 | 1011.5 |
| 20260509111511 | 51 | 94 | 0.0 | 0.9 | 0.02 | 0.07 | 0.07 | 94 | 1011.5 |
| 20260509110013 | 51 | 94 | 0.0 | 0.0 | 0.02 | 0.07 | 0.07 | 94 | 1011.5 |
| 20260509104531 | 51 | 94 | 0.0 | 1.7 | 0.02 | 0.06 | 0.06 | 93 | 1011.3 |
| 20260509103031 | 51 | 201 | 0.9 | 2.6 | 0.02 | 0.05 | 0.05 | 93 | 1011.3 |
| 20260509101541 | 51 | 194 | 0.0 | 2.6 | 0.02 | 0.05 | 0.05 | 92 | 1011.4 |
| 20260509100055 | 51 | 165 | 0.0 | 1.7 | 0.03 | 0.05 | 0.05 | 93 | 1011.6 |
| 20260509094556 | 52 | 178 | 0.0 | 0.9 | 0.03 | 0.04 | 0.04 | 92 | 1011.7 |
| 20260509093101 | 52 | 179 | 0.0 | 0.9 | 0.03 | 0.03 | 0.03 | 90 | 1012.0 |
| 20260509091502 | 53 | 179 | 0.0 | 0.9 | 0.03 | 0.03 | 0.03 | 87 | 1012.2 |
| 20260509090009 | 54 | 184 | 0.0 | 1.7 | 0.02 | 0.02 | 0.02 | 84 | 1012.2 |
| 20260509084530 | 56 | 163 | 0.0 | 1.7 | 0.01 | 0.01 | 0.01 | 75 | 1012.1 |
| 20260509083043 | 58 | 35 | 0.9 | 2.6 | 0.00 | 0.00 | 0.00 | 70 | 1012.2 |
| 20260509081550 | 58 | 36 | 1.7 | 4.3 | 0.00 | 0.00 | 0.00 | 67 | 1011.9 |
| 20260509080050 | 58 | 189 | 0.0 | 4.3 | 0.00 | 0.00 | 0.00 | 64 | 1011.1 |
| 20260509074554 | 57 | 206 | 0.9 | 2.6 | 0.00 | 0.00 | 0.00 | 65 | 1010.6 |
| 20260509073057 | 55 | 32 | 0.0 | 0.9 | 0.00 | 0.00 | 0.00 | 75 | 1010.5 |
| 20260509071508 | 55 | 32 | 0.0 | 2.6 | 0.00 | 0.00 | 0.00 | 76 | 1010.2 |
| 20260509070012 | 55 | 319 | 0.0 | 0.9 | 0.00 | 0.00 | 0.00 | 77 | 1010.1 |
| 20260509064523 | 55 | 329 | 0.0 | 0.9 | 0.00 | 0.00 | 0.00 | 74 | 1010.2 |
| 20260509063028 | 55 | 195 | 0.9 | 4.3 | 0.00 | 0.00 | 0.00 | 73 | 1010.3 |
| 20260509061545 | 54 | 252 | 0.0 | 1.7 | 0.00 | 0.00 | 0.00 | 75 | 1010.4 |
| 20260509060039 | 53 | 24 | 0.0 | 0.9 | 0.00 | 0.00 | 0.00 | 82 | 1010.7 |
| 20260509054602 | 53 | 24 | 0.0 | 0.9 | 0.00 | 0.00 | 0.00 | 82 | 1010.8 |
| 20260509053059 | 53 | 24 | 0.0 | 0.9 | 0.00 | 0.00 | 0.00 | 82 | 1011.0 |
| 20260509051559 | 54 | 24 | 0.0 | 1.7 | 0.00 | 0.00 | 0.00 | 82 | 1011.3 |
| 20260509050003 | 54 | 355 | 0.0 | 0.9 | 0.00 | 0.00 | 0.00 | 81 | 1011.6 |
| 20260509044514 | 54 | 355 | 0.0 | 0.9 | 0.00 | 0.00 | 0.00 | 81 | 1011.6 |
| 20260509043015 | 54 | 355 | 0.0 | 0.9 | 0.00 | 0.00 | 0.00 | 81 | 1011.9 |
| 20260509041520 | 54 | 355 | 0.0 | 0.9 | 0.00 | 0.00 | 0.00 | 81 | 1012.0 |
| 20260509040025 | 55 | 355 | 0.0 | 0.9 | 0.00 | 0.00 | 0.00 | 80 | 1012.1 |
| 20260509034534 | 55 | 355 | 0.0 | 0.9 | 0.00 | 0.00 | 0.00 | 79 | 1012.1 |
| 20260509033040 | 55 | 355 | 0.0 | 0.9 | 0.00 | 0.00 | 0.00 | 78 | 1012.0 |
| 20260509031558 | 56 | 355 | 0.0 | 0.9 | 0.00 | 0.00 | 0.00 | 78 | 1012.2 |
| 20260509030053 | 56 | 355 | 0.0 | 0.9 | 0.00 | 0.00 | 0.00 | 78 | 1012.3 |
| 20260509024601 | 57 | 355 | 0.0 | 0.0 | 0.00 | 0.00 | 0.00 | 77 | 1012.4 |
| 20260509023015 | 57 | 355 | 0.0 | 0.9 | 0.00 | 0.00 | 0.00 | 74 | 1012.3 |
| 20260509021519 | 57 | 355 | 0.0 | 0.0 | 0.00 | 0.00 | 0.00 | 73 | 1012.1 |
| 20260509020025 | 57 | 355 | 0.0 | 0.9 | 0.00 | 0.00 | 0.00 | 74 | 1012.1 |
| 20260509014536 | 57 | 355 | 0.0 | 1.7 | 0.00 | 0.00 | 0.00 | 74 | 1012.0 |
| 20260509013106 | 58 | 355 | 0.0 | 0.0 | 0.00 | 0.00 | 0.00 | 73 | 1011.8 |